VGEG/CGP METAR and TAF weather

Enter ICAO airport designator
Station Type Date Time Source
VGEG METAR 2019/08/26 08:00 UTC NOAA

VGEG 260800Z 27006KT 5000 SCT018 SCT120 34/25 Q1002 NOSIG


Station Type Date Time Source
VGEG Decoded METAR 2019/08/26 08:00 UTC NOAA

Station name not available
Aug 26, 2019 - 04:00 AM EDT / 2019.08.26 0800 UTC
Wind: from the W (270 degrees) at 7 MPH (6 KT):0
Visibility: 3 mile(s):0
Sky conditions: partly cloudy
Temperature: 93 F (34 C)
Heat index: 106.7 F (41.5 C):1
Dew Point: 77 F (25 C)
Relative Humidity: 59%
Pressure (altimeter): 29.59 in. Hg (1002 hPa)
ob: VGEG 260800Z 27006KT 5000 SCT018 SCT120 34/25 Q1002 NOSIG
cycle: 8

Station Type Date Time Source
VGEG TAF 2019/08/26 06:48 UTC NOAA

TAF TAF VGEG 260500Z 2606/2712 18012KT 5000 SCT018 BKN120
BECMG 2618/2620 15007KT 4500 SCT018
BECMG 2705/2707 18010KTFEW018

Example: see airport list